Time;durP1;ratioP1;P1;durP2;ratioP2;P2;SDS_P1;SDS_P2;PMS_P1;PMS_P2;Temp;Humidity;BMP_temperature;BMP_pressure;BME280_temperature;BME280_humidity;BME280_pressure;Samples;Min_cycle;Max_cycle;Signal;HPM_P1;HPM_P2
2021/12/21 00:01:31;;;;;;;17.38;11.93;;;-0.60;99.90;;;;;;5036918;28;20226;-88
2021/12/21 00:03:58;;;;;;;23.73;13.73;;;-0.60;99.90;;;;;;5036235;28;20572;-88
2021/12/21 00:06:25;;;;;;;29.67;13.80;;;-0.60;99.90;;;;;;5035118;28;20219;-88
2021/12/21 00:08:52;;;;;;;21.77;13.65;;;-0.60;99.90;;;;;;5043184;28;20199;-90
2021/12/21 00:11:18;;;;;;;22.80;13.52;;;-0.60;99.90;;;;;;5044160;28;20214;-88
2021/12/21 00:17:05;;;;;;;17.60;11.15;;;-0.60;99.90;;;;;;5035690;28;20224;-88
2021/12/21 00:22:57;;;;;;;19.50;13.20;;;-0.70;99.90;;;;;;5041978;28;20210;-89
2021/12/21 00:25:20;;;;;;;23.50;13.65;;;-0.70;99.90;;;;;;5035739;28;20309;-88
2021/12/21 00:27:49;;;;;;;20.42;13.25;;;-0.80;99.90;;;;;;5033506;28;20195;-88
2021/12/21 00:30:16;;;;;;;16.15;12.18;;;-0.70;99.90;;;;;;5033550;28;20221;-88
2021/12/21 00:32:45;;;;;;;24.73;13.02;;;-0.70;99.90;;;;;;5034140;28;20195;-87
2021/12/21 00:35:12;;;;;;;22.02;15.25;;;-0.80;99.90;;;;;;5034737;28;20222;-88
2021/12/21 00:37:41;;;;;;;18.85;11.63;;;-0.80;99.90;;;;;;5034840;28;20222;-88
2021/12/21 00:40:09;;;;;;;23.58;13.68;;;-0.80;99.90;;;;;;5036295;28;20223;-89
2021/12/21 00:42:36;;;;;;;18.23;12.65;;;-0.70;99.90;;;;;;5040079;28;20207;-88
2021/12/21 00:45:03;;;;;;;26.20;14.00;;;-0.80;99.90;;;;;;5038911;28;20233;-88
2021/12/21 00:47:33;;;;;;;23.15;14.65;;;-0.70;99.90;;;;;;5042501;28;20204;-88
2021/12/21 00:50:03;;;;;;;21.63;14.95;;;-0.70;99.90;;;;;;5046950;28;20726;-89
2021/12/21 00:52:30;;;;;;;25.45;15.50;;;-0.70;99.90;;;;;;5039277;28;20198;-89
2021/12/21 00:54:57;;;;;;;18.10;12.85;;;-0.70;99.90;;;;;;5039609;28;20217;-88
2021/12/21 00:57:24;;;;;;;22.73;14.63;;;-0.70;99.90;;;;;;5055544;28;20221;-89
2021/12/21 00:59:51;;;;;;;27.98;16.27;;;-0.70;99.90;;;;;;5053782;28;20199;-88
2021/12/21 01:02:18;;;;;;;24.48;14.60;;;-0.70;99.90;;;;;;5051761;28;20193;-89
2021/12/21 01:04:48;;;;;;;22.40;14.55;;;-0.80;99.90;;;;;;5048483;28;20191;-88
2021/12/21 01:07:23;;;;;;;18.85;13.65;;;-0.80;99.90;;;;;;5040704;28;20210;-89
2021/12/21 01:10:40;;;;;;;18.15;13.57;;;-0.80;99.90;;;;;;5041224;28;20694;-89
2021/12/21 01:13:14;;;;;;;21.77;13.80;;;-0.90;99.90;;;;;;5040285;28;20686;-89
2021/12/21 01:18:55;;;;;;;28.88;14.02;;;-0.90;99.90;;;;;;5093851;27;20592;-88
2021/12/21 01:21:26;;;;;;;19.20;13.00;;;-0.90;99.90;;;;;;5092522;28;20224;-88
2021/12/21 01:26:42;;;;;;;20.70;14.13;;;-0.90;99.90;;;;;;5096703;28;20188;-90
2021/12/21 01:29:18;;;;;;;28.27;14.65;;;-0.90;99.90;;;;;;5110544;28;20176;-90
2021/12/21 01:31:53;;;;;;;17.30;13.73;;;-0.90;99.90;;;;;;5114550;28;20251;-90
2021/12/21 01:34:36;;;;;;;19.88;14.18;;;-0.90;99.90;;;;;;5114936;28;20196;-90
2021/12/21 01:37:08;;;;;;;21.90;13.68;;;-0.80;99.90;;;;;;5101214;28;20212;-89
2021/12/21 01:42:46;;;;;;;21.25;13.90;;;-0.80;99.90;;;;;;5079301;28;20242;-89
2021/12/21 01:50:42;;;;;;;22.10;13.18;;;-0.90;99.90;;;;;;5091081;28;20708;-90
2021/12/21 01:53:09;;;;;;;14.60;11.23;;;-0.90;99.90;;;;;;5090932;28;20238;-90
2021/12/21 01:55:36;;;;;;;18.98;12.10;;;-1.00;99.90;;;;;;5090816;28;20200;-89
2021/12/21 01:58:03;;;;;;;16.65;11.95;;;-1.10;99.90;;;;;;5090455;28;20217;-89
2021/12/21 02:00:30;;;;;;;20.10;13.68;;;-1.10;99.90;;;;;;5090843;28;20217;-90
2021/12/21 02:02:57;;;;;;;17.75;11.93;;;-1.20;99.90;;;;;;5092560;28;20676;-90
2021/12/21 02:05:24;;;;;;;18.92;12.68;;;-1.20;99.90;;;;;;5090897;28;20197;-88
2021/12/21 02:07:52;;;;;;;19.13;11.90;;;-1.20;99.90;;;;;;5090656;28;20201;-90
2021/12/21 02:10:19;;;;;;;20.60;12.65;;;-1.20;99.90;;;;;;5090986;28;20240;-90
2021/12/21 02:12:46;;;;;;;17.55;12.70;;;-1.30;99.90;;;;;;5090809;28;20204;-90
2021/12/21 02:15:13;;;;;;;22.30;12.88;;;-1.20;99.90;;;;;;5097648;28;20208;-90
2021/12/21 02:20:38;;;;;;;27.05;12.25;;;-1.30;99.90;;;;;;5084682;28;20289;-90
2021/12/21 02:23:09;;;;;;;16.00;11.73;;;-1.40;99.90;;;;;;5092165;28;20240;-90
2021/12/21 02:25:55;;;;;;;20.63;12.98;;;-1.40;99.90;;;;;;5091952;28;20201;-90
2021/12/21 02:28:36;;;;;;;23.98;13.27;;;-1.30;99.90;;;;;;5086421;28;20207;-90
2021/12/21 02:31:03;;;;;;;14.02;11.02;;;-1.30;99.90;;;;;;5077995;28;20217;-90
2021/12/21 02:33:30;;;;;;;18.90;12.27;;;-1.30;99.90;;;;;;5078582;28;20298;-88
2021/12/21 02:35:59;;;;;;;17.55;11.88;;;-1.40;99.90;;;;;;5079043;28;20208;-89
2021/12/21 02:38:26;;;;;;;14.85;10.65;;;-1.40;99.90;;;;;;5081923;28;20256;-89
2021/12/21 02:40:54;;;;;;;20.38;11.15;;;-1.40;99.90;;;;;;5080616;28;20225;-89
2021/12/21 02:43:28;;;;;;;14.65;11.30;;;-1.40;99.90;;;;;;5080315;28;20205;-90
2021/12/21 02:45:55;;;;;;;19.23;11.85;;;-1.40;99.90;;;;;;5079580;28;20213;-90
2021/12/21 02:48:22;;;;;;;18.35;11.70;;;-1.50;99.90;;;;;;5077512;28;20201;-90
2021/12/21 02:50:49;;;;;;;15.32;10.85;;;-1.50;99.90;;;;;;5085190;28;20697;-89
2021/12/21 02:53:23;;;;;;;15.93;11.23;;;-1.50;99.90;;;;;;5082365;28;20200;-90
2021/12/21 02:55:50;;;;;;;18.88;11.25;;;-1.60;99.90;;;;;;5080471;28;20308;-91
2021/12/21 02:58:17;;;;;;;17.25;11.07;;;-1.60;99.90;;;;;;5077769;28;20224;-90
2021/12/21 03:00:44;;;;;;;17.77;10.75;;;-1.60;99.90;;;;;;5075661;28;20214;-90
2021/12/21 03:03:13;;;;;;;20.77;9.65;;;-1.60;99.90;;;;;;5075492;28;20206;-90
2021/12/21 03:05:44;;;;;;;19.70;11.82;;;-1.60;99.90;;;;;;5075776;28;20648;-90
2021/12/21 03:08:16;;;;;;;18.83;11.32;;;-1.50;99.90;;;;;;5076299;28;20280;-90
2021/12/21 03:10:59;;;;;;;21.25;11.15;;;-1.50;99.90;;;;;;5090313;28;20222;-89
2021/12/21 03:16:10;;;;;;;20.45;11.95;;;-1.50;99.90;;;;;;5093468;28;20197;-89
2021/12/21 03:18:37;;;;;;;12.65;10.40;;;-1.50;99.90;;;;;;5090995;28;20220;-89
2021/12/21 03:21:04;;;;;;;17.75;11.20;;;-1.50;99.90;;;;;;5085798;28;20220;-90
2021/12/21 03:23:31;;;;;;;15.30;10.88;;;-1.50;99.90;;;;;;5081375;28;20204;-90
2021/12/21 03:25:59;;;;;;;15.55;10.30;;;-1.50;99.90;;;;;;5080372;28;20209;-91
2021/12/21 03:28:26;;;;;;;15.23;11.20;;;-1.40;99.90;;;;;;5078903;28;20216;-90
2021/12/21 03:30:53;;;;;;;22.30;12.32;;;-1.40;99.90;;;;;;5078394;28;20213;-90
2021/12/21 03:33:20;;;;;;;16.58;10.68;;;-1.50;99.90;;;;;;5077149;28;20198;-90
2021/12/21 03:35:47;;;;;;;17.02;10.27;;;-1.50;99.90;;;;;;5076915;28;20199;-90
2021/12/21 03:38:15;;;;;;;14.30;10.20;;;-1.60;99.90;;;;;;5076261;28;20588;-90
2021/12/21 03:40:42;;;;;;;13.93;9.82;;;-1.60;99.90;;;;;;5074484;28;20229;-90
2021/12/21 03:43:20;;;;;;;16.38;10.68;;;-1.60;99.90;;;;;;5076274;28;20212;-90
2021/12/21 03:45:57;;;;;;;13.05;10.82;;;-1.60;99.90;;;;;;5076581;28;20217;-90
2021/12/21 03:48:24;;;;;;;15.95;11.27;;;-1.60;99.90;;;;;;5056392;28;20198;-90
2021/12/21 03:50:51;;;;;;;16.85;10.82;;;-1.60;99.90;;;;;;5073910;28;20231;-90
2021/12/21 03:53:17;;;;;;;14.57;10.13;;;-1.60;99.90;;;;;;5076401;28;20684;-90
2021/12/21 03:55:44;;;;;;;14.38;9.93;;;-1.70;99.90;;;;;;5081677;28;20213;-90
2021/12/21 03:58:11;;;;;;;15.10;10.48;;;-1.70;99.90;;;;;;5077176;28;20670;-90
2021/12/21 04:00:40;;;;;;;15.52;11.02;;;-1.70;99.90;;;;;;5077251;28;20213;-90
2021/12/21 04:03:07;;;;;;;15.48;10.80;;;-1.80;99.90;;;;;;5076315;28;20213;-90
2021/12/21 04:05:34;;;;;;;20.05;11.70;;;-1.80;99.90;;;;;;5077071;28;20203;-90
2021/12/21 04:08:03;;;;;;;16.13;11.00;;;-1.80;99.90;;;;;;5088334;28;20193;-91
2021/12/21 04:10:29;;;;;;;15.75;11.90;;;-1.80;99.90;;;;;;5083541;28;20281;-91
2021/12/21 04:12:56;;;;;;;17.40;10.98;;;-1.80;99.90;;;;;;5078008;28;20346;-89
2021/12/21 04:15:28;;;;;;;18.23;10.50;;;-1.70;99.90;;;;;;5075680;28;20213;-88
2021/12/21 04:17:56;;;;;;;17.08;11.02;;;-1.70;99.90;;;;;;5074222;28;20217;-90
2021/12/21 04:20:23;;;;;;;17.05;11.93;;;-1.70;99.90;;;;;;5075032;28;20229;-89
2021/12/21 04:22:50;;;;;;;14.55;9.75;;;-1.70;99.90;;;;;;5086436;28;20185;-90
2021/12/21 04:25:24;;;;;;;13.20;11.00;;;-1.80;99.90;;;;;;5091563;28;20233;-90
2021/12/21 04:27:51;;;;;;;11.63;10.48;;;-1.80;99.90;;;;;;5074170;28;20200;-89
2021/12/21 04:30:18;;;;;;;13.45;10.55;;;-1.80;99.90;;;;;;5078579;28;20776;-80
2021/12/21 04:32:44;;;;;;;15.57;9.35;;;-1.80;99.90;;;;;;5077143;28;20197;-80
2021/12/21 04:35:15;;;;;;;22.20;11.05;;;-1.80;99.90;;;;;;5078166;28;20198;-80
2021/12/21 04:37:45;;;;;;;14.65;10.45;;;-1.80;99.90;;;;;;5076543;28;20224;-90
2021/12/21 04:40:16;;;;;;;14.75;10.35;;;-1.80;99.90;;;;;;5075859;28;20247;-90
2021/12/21 04:42:43;;;;;;;16.33;10.15;;;-1.80;99.90;;;;;;5074272;28;20213;-90
2021/12/21 04:45:10;;;;;;;28.65;13.20;;;-1.80;99.90;;;;;;5074482;28;20211;-91
2021/12/21 04:47:37;;;;;;;18.30;9.73;;;-1.80;99.90;;;;;;5079870;28;20209;-89
2021/12/21 04:50:13;;;;;;;15.13;10.35;;;-1.90;99.90;;;;;;5074969;28;20205;-89
2021/12/21 04:52:40;;;;;;;15.82;10.43;;;-1.80;99.90;;;;;;5090599;28;20195;-91
2021/12/21 04:55:08;;;;;;;20.33;11.52;;;-1.90;99.90;;;;;;5085696;28;20205;-90
2021/12/21 04:57:35;;;;;;;16.17;9.52;;;-1.90;99.90;;;;;;5092023;28;20285;-92
2021/12/21 05:00:02;;;;;;;15.00;9.35;;;-1.90;99.90;;;;;;5078492;28;20200;-91
2021/12/21 05:02:29;;;;;;;10.63;7.97;;;-1.90;99.90;;;;;;5078904;28;20205;-90
2021/12/21 05:04:56;;;;;;;12.57;9.55;;;-1.90;99.90;;;;;;5088601;28;20212;-90
2021/12/21 05:07:27;;;;;;;18.30;10.15;;;-1.90;99.90;;;;;;5078387;28;20266;-89
2021/12/21 05:09:57;;;;;;;13.93;10.55;;;-1.90;99.90;;;;;;5055710;28;20209;-89
2021/12/21 05:12:24;;;;;;;17.40;10.18;;;-1.90;99.90;;;;;;5074220;28;20292;-89
2021/12/21 05:14:51;;;;;;;14.70;9.40;;;-1.90;99.90;;;;;;5074787;28;20213;-89
2021/12/21 05:17:18;;;;;;;13.48;10.15;;;-1.80;99.90;;;;;;5073691;28;20205;-89
2021/12/21 05:19:45;;;;;;;14.60;10.93;;;-1.80;99.90;;;;;;5085243;28;20209;-88
2021/12/21 05:22:12;;;;;;;13.25;9.52;;;-1.80;99.90;;;;;;5088046;28;20224;-88
2021/12/21 05:24:40;;;;;;;12.88;10.48;;;-1.80;99.90;;;;;;5088335;28;20744;-88
2021/12/21 05:27:07;;;;;;;13.95;10.40;;;-1.80;99.90;;;;;;5064904;28;20206;-88
2021/12/21 05:29:39;;;;;;;17.05;10.40;;;-1.70;99.90;;;;;;5056026;28;20661;-88
2021/12/21 05:32:06;;;;;;;12.68;9.85;;;-1.80;99.90;;;;;;5058365;28;20205;-87
2021/12/21 05:34:33;;;;;;;14.70;9.60;;;-1.80;99.90;;;;;;5124255;22;20260;-89
2021/12/21 05:37:05;;;;;;;13.32;9.52;;;-1.90;99.90;;;;;;5123816;28;20203;-88
2021/12/21 05:39:40;;;;;;;17.55;9.68;;;-1.90;99.90;;;;;;5117087;28;20216;-89
2021/12/21 05:42:09;;;;;;;13.30;8.85;;;-1.90;99.90;;;;;;5113863;28;20208;-89
2021/12/21 05:44:36;;;;;;;12.82;9.48;;;-1.90;99.90;;;;;;5103805;28;20217;-89
2021/12/21 05:47:04;;;;;;;13.30;10.07;;;-1.90;99.90;;;;;;5094237;28;20242;-89
2021/12/21 05:49:34;;;;;;;16.42;10.10;;;-1.90;99.90;;;;;;5092697;28;20197;-89
2021/12/21 05:52:01;;;;;;;17.45;9.55;;;-2.00;99.90;;;;;;5108302;28;20215;-90
2021/12/21 05:54:27;;;;;;;13.32;8.63;;;-2.00;99.90;;;;;;5112649;28;20209;-90
2021/12/21 05:56:55;;;;;;;14.13;9.82;;;-2.10;99.90;;;;;;5093706;28;20192;-88
2021/12/21 05:59:24;;;;;;;11.20;8.98;;;-2.10;99.90;;;;;;5090990;28;20225;-88
2021/12/21 06:01:51;;;;;;;19.48;10.50;;;-2.10;99.90;;;;;;5091808;28;20209;-89
2021/12/21 06:04:18;;;;;;;18.92;11.23;;;-2.10;99.90;;;;;;5092166;28;20850;-87
2021/12/21 06:06:44;;;;;;;13.38;9.70;;;-2.20;99.90;;;;;;5095302;28;20193;-86
2021/12/21 06:09:13;;;;;;;14.32;9.65;;;-2.20;99.90;;;;;;5094676;28;20196;-87
2021/12/21 06:11:45;;;;;;;15.75;11.70;;;-2.20;99.90;;;;;;5095459;28;20812;-86
2021/12/21 06:14:22;;;;;;;11.50;8.07;;;-2.10;99.90;;;;;;5114229;28;20219;-86
2021/12/21 06:28:06;;;;;;;16.25;9.45;;;-2.10;99.90;;;;;;5013830;28;20250;-86
2021/12/21 06:30:33;;;;;;;9.77;8.27;;;-2.10;99.90;;;;;;5078068;28;20205;-88
2021/12/21 06:33:02;;;;;;;16.88;11.35;;;-2.10;99.90;;;;;;5115800;28;20217;-87
2021/12/21 06:35:29;;;;;;;21.23;11.07;;;-2.20;99.90;;;;;;5109704;28;20253;-87
2021/12/21 06:37:56;;;;;;;14.02;9.75;;;-2.20;99.90;;;;;;5099580;28;20200;-86
2021/12/21 06:40:26;;;;;;;15.38;10.05;;;-2.20;99.90;;;;;;5094545;28;20196;-86
2021/12/21 06:43:01;;;;;;;15.38;8.90;;;-2.20;99.90;;;;;;5095692;28;20695;-86
2021/12/21 06:45:42;;;;;;;14.02;8.98;;;-2.20;99.90;;;;;;5093464;28;20192;-87
2021/12/21 06:51:14;;;;;;;15.30;9.00;;;-2.10;99.90;;;;;;5093405;28;20243;-86
2021/12/21 06:53:42;;;;;;;15.75;8.60;;;-2.10;99.90;;;;;;5097978;28;20250;-85
2021/12/21 06:56:12;;;;;;;13.30;8.30;;;-2.10;99.90;;;;;;5097121;28;20200;-84
2021/12/21 06:58:39;;;;;;;17.42;10.32;;;-2.10;99.90;;;;;;5115894;28;20261;-84
2021/12/21 07:01:07;;;;;;;15.15;10.15;;;-2.10;99.90;;;;;;5098743;28;20193;-86
2021/12/21 07:03:36;;;;;;;17.55;9.93;;;-2.20;99.90;;;;;;5094816;28;20220;-87
2021/12/21 07:06:06;;;;;;;18.52;10.30;;;-2.20;99.90;;;;;;5092536;28;20234;-87
2021/12/21 07:08:43;;;;;;;18.50;11.15;;;-2.20;99.90;;;;;;5092809;28;20201;-86
2021/12/21 07:11:16;;;;;;;14.85;10.68;;;-2.30;99.90;;;;;;5095626;28;20192;-86
2021/12/21 07:19:22;;;;;;;19.10;15.27;;;-2.00;99.90;;;;;;5092583;28;20274;-86
2021/12/21 07:21:49;;;;;;;15.20;9.80;;;-2.00;99.90;;;;;;5091715;28;20197;-87
2021/12/21 07:24:16;;;;;;;12.50;11.18;;;-2.00;99.90;;;;;;5092472;28;20298;-86
2021/12/21 07:26:42;;;;;;;15.77;9.45;;;-1.90;99.90;;;;;;5093731;28;20270;-87
2021/12/21 07:29:09;;;;;;;21.42;10.10;;;-1.80;99.90;;;;;;5093984;28;20192;-87
2021/12/21 07:31:38;;;;;;;16.92;10.00;;;-1.90;99.90;;;;;;5092639;28;20193;-88
2021/12/21 07:34:05;;;;;;;16.63;10.43;;;-1.90;99.90;;;;;;5092948;28;20224;-87
2021/12/21 07:36:34;;;;;;;14.90;10.13;;;-1.80;99.90;;;;;;5091570;28;20200;-86
2021/12/21 07:39:04;;;;;;;13.30;9.82;;;-1.80;99.90;;;;;;5093883;28;20317;-87
2021/12/21 07:41:31;;;;;;;17.00;10.73;;;-1.80;99.90;;;;;;5095499;28;20206;-87
2021/12/21 07:43:58;;;;;;;11.32;9.45;;;-1.90;99.90;;;;;;5100491;28;20221;-87
2021/12/21 07:46:24;;;;;;;15.43;11.20;;;-2.00;99.90;;;;;;5107732;28;20207;-87
2021/12/21 07:48:52;;;;;;;14.43;11.00;;;-2.00;99.90;;;;;;5094098;28;20217;-87
2021/12/21 07:51:19;;;;;;;13.85;9.68;;;-2.00;99.90;;;;;;5090592;28;20197;-87
2021/12/21 07:53:48;;;;;;;17.23;10.75;;;-2.00;99.90;;;;;;5091705;28;20220;-87
2021/12/21 07:56:16;;;;;;;17.65;12.05;;;-1.90;99.90;;;;;;5091978;28;20224;-87
2021/12/21 07:58:44;;;;;;;17.48;11.68;;;-1.80;99.90;;;;;;5102277;28;20212;-86
2021/12/21 08:01:11;;;;;;;13.63;9.90;;;-1.80;99.90;;;;;;5107814;28;20211;-87
2021/12/21 08:03:38;;;;;;;13.02;10.07;;;-1.80;99.90;;;;;;5094455;28;20225;-87
2021/12/21 08:06:07;;;;;;;19.65;10.77;;;-1.80;99.90;;;;;;5093557;28;20203;-87
2021/12/21 08:08:37;;;;;;;17.67;11.30;;;-1.70;99.90;;;;;;5092188;28;20201;-87
2021/12/21 08:11:14;;;;;;;18.63;12.73;;;-1.70;99.90;;;;;;5100765;28;20250;-86
2021/12/21 08:13:43;;;;;;;16.73;10.93;;;-1.70;99.90;;;;;;5103316;28;20243;-87
2021/12/21 08:16:10;;;;;;;20.15;11.23;;;-1.60;99.90;;;;;;5099414;28;20204;-85
2021/12/21 08:18:38;;;;;;;16.55;11.20;;;-1.60;99.90;;;;;;5103913;28;20208;-87
2021/12/21 08:21:06;;;;;;;16.63;11.52;;;-1.50;99.90;;;;;;5100009;28;20192;-89
2021/12/21 08:23:33;;;;;;;16.08;9.70;;;-1.50;99.90;;;;;;5095169;28;20228;-87
2021/12/21 08:26:00;;;;;;;15.60;11.73;;;-1.40;99.90;;;;;;5095551;28;20633;-88
2021/12/21 08:28:28;;;;;;;14.55;11.07;;;-1.40;99.90;;;;;;5093407;28;20208;-89
2021/12/21 08:30:55;;;;;;;15.43;11.20;;;-1.30;99.90;;;;;;5096744;28;20195;-89
2021/12/21 08:33:23;;;;;;;16.67;12.05;;;-1.30;99.90;;;;;;5100301;28;20224;-89
2021/12/21 08:35:50;;;;;;;15.02;12.48;;;-1.30;99.90;;;;;;5107498;28;20260;-90
2021/12/21 08:38:19;;;;;;;16.10;10.23;;;-1.20;99.90;;;;;;5103500;28;20271;-87
2021/12/21 08:40:49;;;;;;;15.95;11.93;;;-1.10;99.90;;;;;;5093117;28;20196;-86
2021/12/21 08:43:20;;;;;;;17.55;11.90;;;-1.10;99.90;;;;;;5094162;28;20224;-87
2021/12/21 08:45:51;;;;;;;17.27;12.43;;;-0.90;99.90;;;;;;5102050;28;20200;-85
2021/12/21 08:48:21;;;;;;;21.55;11.07;;;-0.90;99.90;;;;;;5111760;28;20184;-84
2021/12/21 08:50:52;;;;;;;18.73;11.32;;;-0.30;99.90;;;;;;5111781;28;20204;-85
2021/12/21 08:53:20;;;;;;;15.27;11.77;;;0.40;99.90;;;;;;5110696;28;20216;-87
2021/12/21 08:55:47;;;;;;;20.42;12.18;;;0.40;99.90;;;;;;5093910;28;20204;-86
2021/12/21 08:58:15;;;;;;;22.80;12.20;;;0.80;99.90;;;;;;5097846;28;20185;-85
2021/12/21 09:00:43;;;;;;;15.48;11.52;;;1.90;99.90;;;;;;5101337;28;20225;-87
2021/12/21 09:03:12;;;;;;;13.60;10.48;;;2.50;99.90;;;;;;5092381;28;20216;-88
2021/12/21 09:05:40;;;;;;;19.30;12.90;;;2.50;99.90;;;;;;5089257;28;20212;-88
2021/12/21 09:08:10;;;;;;;19.67;12.35;;;2.20;99.90;;;;;;5092702;28;20197;-88
2021/12/21 09:10:38;;;;;;;17.85;10.68;;;2.30;99.90;;;;;;5093660;28;20199;-87
2021/12/21 09:13:05;;;;;;;14.00;10.82;;;2.50;99.90;;;;;;5099977;28;20224;-89
2021/12/21 09:15:37;;;;;;;17.27;11.70;;;2.60;99.90;;;;;;5115023;28;20177;-90
2021/12/21 09:18:05;;;;;;;16.23;12.40;;;2.50;99.90;;;;;;5111125;28;20225;-87
2021/12/21 09:20:36;;;;;;;13.25;11.35;;;2.30;99.90;;;;;;5101054;28;20227;-88
2021/12/21 09:23:04;;;;;;;19.88;12.60;;;2.40;99.90;;;;;;5093039;28;20212;-87
2021/12/21 09:25:32;;;;;;;12.82;10.23;;;2.60;99.90;;;;;;5094416;28;20657;-87
2021/12/21 09:27:59;;;;;;;14.73;10.23;;;2.50;99.90;;;;;;5091228;28;20193;-85
2021/12/21 09:30:28;;;;;;;12.18;10.43;;;2.10;99.90;;;;;;5093333;28;20198;-88
2021/12/21 09:32:54;;;;;;;14.25;10.88;;;1.70;99.90;;;;;;5093905;28;20279;-89
2021/12/21 09:35:34;;;;;;;16.67;11.55;;;1.70;99.90;;;;;;5104867;28;20173;-89
2021/12/21 09:38:01;;;;;;;13.35;10.70;;;1.80;99.90;;;;;;5112504;28;20182;-91
2021/12/21 09:40:30;;;;;;;12.15;9.85;;;1.60;99.90;;;;;;5098736;28;20217;-87
2021/12/21 09:42:57;;;;;;;20.30;12.23;;;1.50;99.90;;;;;;5103807;28;20189;-86
2021/12/21 09:45:25;;;;;;;12.18;8.80;;;1.60;99.90;;;;;;5114309;28;20194;-87
2021/12/21 09:47:52;;;;;;;14.60;9.00;;;1.70;99.90;;;;;;5100419;28;20193;-87
2021/12/21 09:50:22;;;;;;;10.40;9.30;;;1.90;99.90;;;;;;5098091;28;20192;-87
2021/12/21 09:52:50;;;;;;;13.05;8.27;;;2.20;99.90;;;;;;5095535;28;20195;-87
2021/12/21 09:55:19;;;;;;;13.00;8.52;;;3.00;99.90;;;;;;5092862;28;20583;-87
2021/12/21 09:57:47;;;;;;;11.00;7.97;;;4.00;99.90;;;;;;5093530;28;20193;-87
2021/12/21 10:00:17;;;;;;;10.20;7.78;;;4.50;99.90;;;;;;5095611;28;20497;-87
2021/12/21 10:02:44;;;;;;;9.83;7.00;;;4.90;99.90;;;;;;5095970;28;20192;-87
2021/12/21 10:05:13;;;;;;;8.70;7.80;;;5.00;99.90;;;;;;5097881;28;20451;-88
2021/12/21 10:07:40;;;;;;;11.63;7.93;;;5.80;99.00;;;;;;5096273;28;20901;-88
2021/12/21 10:10:11;;;;;;;9.10;7.70;;;6.40;97.60;;;;;;5096756;28;20456;-87
2021/12/21 10:12:41;;;;;;;12.07;8.60;;;7.90;96.00;;;;;;5097036;28;20453;-88
2021/12/21 10:15:16;;;;;;;9.57;7.20;;;9.30;92.80;;;;;;5098493;28;20526;-87
2021/12/21 10:17:49;;;;;;;13.37;7.90;;;10.50;89.20;;;;;;5094856;28;20450;-88
2021/12/21 10:20:29;;;;;;;9.40;7.37;;;11.90;83.40;;;;;;5095942;28;20474;-88
2021/12/21 10:22:56;;;;;;;9.87;7.00;;;12.90;76.70;;;;;;5093180;28;20454;-88
2021/12/21 10:25:26;;;;;;;8.27;6.47;;;14.10;71.00;;;;;;5096173;28;20447;-89
2021/12/21 10:27:53;;;;;;;9.03;6.73;;;15.20;67.10;;;;;;5094009;28;21231;-88
2021/12/21 10:30:20;;;;;;;9.57;6.27;;;16.40;63.10;;;;;;5094621;28;20892;-89
2021/12/21 10:32:54;;;;;;;8.13;6.10;;;16.90;57.80;;;;;;5090418;28;20451;-88
2021/12/21 10:35:29;;;;;;;8.80;6.20;;;17.30;56.90;;;;;;5092392;28;20836;-87
2021/12/21 10:37:56;;;;;;;8.30;6.40;;;17.00;53.80;;;;;;5099196;28;20448;-87
2021/12/21 10:40:26;;;;;;;8.17;5.60;;;16.90;54.20;;;;;;5099434;28;20715;-87
2021/12/21 10:42:56;;;;;;;7.10;6.40;;;16.80;52.70;;;;;;5100826;28;20457;-87
2021/12/21 10:45:30;;;;;;;8.17;5.80;;;17.50;52.20;;;;;;5116494;28;20438;-86
2021/12/21 10:47:58;;;;;;;7.07;6.10;;;17.50;51.10;;;;;;5117790;28;20435;-88
2021/12/21 10:50:28;;;;;;;8.70;6.10;;;17.20;50.80;;;;;;5116695;28;20474;-87
2021/12/21 10:52:58;;;;;;;9.37;6.17;;;16.60;50.90;;;;;;5111025;28;20599;-87
2021/12/21 10:55:31;;;;;;;9.10;5.30;;;16.60;52.30;;;;;;5100951;28;20495;-87
2021/12/21 10:58:06;;;;;;;11.63;6.20;;;17.30;52.70;;;;;;5104168;28;20449;-88
2021/12/21 11:00:34;;;;;;;6.13;5.53;;;18.60;50.80;;;;;;5099183;28;20442;-88
2021/12/21 11:03:01;;;;;;;7.33;6.23;;;18.90;48.80;;;;;;5097893;28;20493;-86
2021/12/21 11:05:28;;;;;;;10.80;7.43;;;18.00;47.80;;;;;;5099526;28;20446;-86
2021/12/21 11:07:59;;;;;;;6.80;5.50;;;17.80;49.10;;;;;;5104811;28;20442;-85
2021/12/21 11:10:32;;;;;;;12.00;6.30;;;18.70;49.80;;;;;;5096736;28;20569;-85
2021/12/21 11:13:01;;;;;;;10.27;6.00;;;18.60;48.00;;;;;;5095436;28;20553;-88
2021/12/21 11:15:30;;;;;;;8.07;6.43;;;19.00;48.40;;;;;;5107629;28;20446;-91
2021/12/21 11:17:59;;;;;;;7.77;5.97;;;19.10;47.10;;;;;;5103863;28;21001;-88
2021/12/21 11:20:27;;;;;;;8.40;6.27;;;19.20;46.20;;;;;;5096935;28;20446;-88
2021/12/21 11:22:55;;;;;;;7.50;6.57;;;18.20;46.90;;;;;;5098406;28;20443;-89
2021/12/21 11:25:24;;;;;;;8.63;6.17;;;18.50;46.90;;;;;;5096465;28;20463;-89
2021/12/21 11:27:53;;;;;;;6.37;5.53;;;18.60;47.50;;;;;;5103974;28;20446;-87
2021/12/21 11:30:23;;;;;;;9.50;5.97;;;19.60;47.90;;;;;;5116018;28;20462;-88
2021/12/21 11:32:52;;;;;;;6.77;6.10;;;19.40;45.30;;;;;;5101029;28;20558;-89
2021/12/21 11:38:08;;;;;;;7.63;5.70;;;18.00;46.00;;;;;;5093686;28;20469;-86
2021/12/21 11:40:39;;;;;;;6.90;5.40;;;18.70;46.90;;;;;;5094297;28;20446;-88
2021/12/21 11:43:23;;;;;;;9.67;5.30;;;19.10;45.90;;;;;;5093791;28;20939;-87
2021/12/21 11:45:54;;;;;;;7.10;5.10;;;17.90;45.80;;;;;;5093042;28;20447;-90
2021/12/21 11:48:31;;;;;;;7.10;6.27;;;18.40;47.40;;;;;;5098584;28;20440;-88
2021/12/21 11:51:04;;;;;;;5.67;5.07;;;19.40;46.10;;;;;;5114232;22;20506;-89
2021/12/21 11:53:31;;;;;;;5.27;4.77;;;20.40;44.70;;;;;;5094958;28;20451;-89
2021/12/21 11:55:58;;;;;;;5.20;4.70;;;20.50;43.50;;;;;;5083573;28;20451;-88
2021/12/21 11:58:33;;;;;;;4.37;3.97;;;20.10;43.70;;;;;;5096641;28;20458;-89
2021/12/21 12:01:03;;;;;;;14.23;4.67;;;19.60;43.20;;;;;;5077248;28;20465;-90
2021/12/21 12:03:33;;;;;;;6.10;4.60;;;19.90;44.10;;;;;;5078246;28;20427;-88
2021/12/21 12:06:03;;;;;;;4.57;4.17;;;20.00;43.90;;;;;;5095710;28;20446;-89
2021/12/21 12:08:41;;;;;;;6.97;5.57;;;19.50;43.10;;;;;;5094302;28;20472;-89
2021/12/21 12:11:09;;;;;;;5.73;3.97;;;19.60;44.10;;;;;;5077428;28;20529;-89
2021/12/21 12:13:40;;;;;;;5.13;4.60;;;19.80;43.30;;;;;;5083952;28;20512;-89
2021/12/21 12:16:09;;;;;;;4.97;4.43;;;19.10;43.40;;;;;;5093952;28;20486;-91
2021/12/21 12:18:42;;;;;;;4.47;4.07;;;17.30;45.10;;;;;;5081260;28;20440;-87
2021/12/21 12:21:17;;;;;;;6.97;4.40;;;18.40;45.70;;;;;;5078229;28;20514;-88
2021/12/21 12:23:46;;;;;;;4.63;4.23;;;18.30;44.50;;;;;;5072472;28;20453;-87
2021/12/21 12:26:25;;;;;;;4.70;4.20;;;17.10;45.60;;;;;;5076763;28;20877;-89
2021/12/21 12:28:55;;;;;;;5.30;4.03;;;16.50;46.30;;;;;;5069129;28;20457;-88
2021/12/21 12:31:30;;;;;;;4.70;4.30;;;16.30;47.00;;;;;;5072726;28;20529;-87
2021/12/21 12:33:57;;;;;;;5.27;4.50;;;17.60;46.40;;;;;;5071298;28;20443;-86
2021/12/21 12:36:34;;;;;;;7.93;4.80;;;18.60;44.90;;;;;;5080083;28;20459;-89
2021/12/21 12:39:01;;;;;;;6.03;5.27;;;17.20;45.90;;;;;;5078704;28;20439;-89
2021/12/21 12:41:28;;;;;;;5.17;4.47;;;17.00;46.30;;;;;;5076148;28;20455;-88
2021/12/21 12:43:56;;;;;;;8.23;5.50;;;17.30;46.50;;;;;;5075309;28;20440;-86
2021/12/21 12:46:25;;;;;;;5.00;4.03;;;16.30;45.90;;;;;;5064483;28;20448;-86
2021/12/21 12:48:52;;;;;;;3.87;3.47;;;14.90;47.50;;;;;;5062365;28;20444;-86
2021/12/21 12:51:26;;;;;;;7.97;4.50;;;13.60;49.60;;;;;;5063384;28;20475;-84
2021/12/21 12:53:59;;;;;;;5.20;3.70;;;13.20;51.50;;;;;;5061183;28;20444;-89
2021/12/21 12:56:26;;;;;;;5.57;3.47;;;12.40;51.80;;;;;;5063112;28;20449;-88
2021/12/21 12:58:56;;;;;;;3.87;2.90;;;10.40;54.40;;;;;;5065301;28;20444;-87
2021/12/21 13:01:25;;;;;;;5.10;3.13;;;9.50;57.80;;;;;;5062731;28;20461;-87
2021/12/21 13:03:53;;;;;;;6.53;3.50;;;8.70;59.80;;;;;;5063964;28;20449;-87
2021/12/21 13:06:29;;;;;;;4.87;3.30;;;8.30;62.50;;;;;;5060921;28;20476;-86
2021/12/21 13:08:56;;;;;;;6.30;5.00;;;8.70;63.90;;;;;;5062712;28;20485;-86
2021/12/21 13:11:26;;;;;;;4.83;3.63;;;9.20;61.90;;;;;;5063020;28;20483;-86
2021/12/21 13:13:54;;;;;;;5.97;4.10;;;9.00;61.60;;;;;;5071290;28;20443;-86
2021/12/21 13:16:24;;;;;;;4.30;3.57;;;8.90;61.90;;;;;;5070173;28;20466;-87
2021/12/21 13:18:53;;;;;;;5.50;3.70;;;8.80;63.00;;;;;;5066754;28;20446;-92
2021/12/21 13:21:22;;;;;;;6.90;3.40;;;8.50;63.40;;;;;;5065588;28;20769;-88
2021/12/21 13:23:51;;;;;;;5.43;3.43;;;8.60;64.00;;;;;;5060016;28;20445;-88
2021/12/21 13:26:18;;;;;;;9.43;7.07;;;9.20;63.00;;;;;;5065420;28;20458;-85
2021/12/21 13:28:48;;;;;;;7.07;5.53;;;9.70;63.80;;;;;;5081300;28;20441;-85
2021/12/21 13:31:17;;;;;;;5.50;4.13;;;10.70;62.30;;;;;;5078451;28;20479;-85
2021/12/21 13:33:50;;;;;;;6.20;4.67;;;12.00;59.70;;;;;;5076864;28;20439;-87
2021/12/21 13:36:16;;;;;;;5.87;4.83;;;12.70;56.80;;;;;;5064687;28;20451;-85